sensor_id;sensor_type;location;lat;lon;timestamp;P1;durP1;ratioP1;P2;durP2;ratioP2
71484;SDS011;59300;52.074;4.758;2022-12-29T00:01:06;3.00;;;2.20;;
71484;SDS011;59300;52.074;4.758;2022-12-29T00:04:10;3.58;;;2.10;;
71484;SDS011;59300;52.074;4.758;2022-12-29T00:07:16;2.28;;;2.00;;
71484;SDS011;59300;52.074;4.758;2022-12-29T00:10:18;2.70;;;1.80;;
71484;SDS011;59300;52.074;4.758;2022-12-29T00:13:20;3.00;;;1.73;;
71484;SDS011;59300;52.074;4.758;2022-12-29T00:16:21;2.72;;;1.77;;
71484;SDS011;59300;52.074;4.758;2022-12-29T00:19:23;3.33;;;1.83;;
71484;SDS011;59300;52.074;4.758;2022-12-29T00:22:25;2.88;;;1.88;;
71484;SDS011;59300;52.074;4.758;2022-12-29T00:25:27;1.65;;;1.55;;
71484;SDS011;59300;52.074;4.758;2022-12-29T00:28:29;3.17;;;1.70;;
71484;SDS011;59300;52.074;4.758;2022-12-29T00:31:30;3.33;;;1.70;;
71484;SDS011;59300;52.074;4.758;2022-12-29T00:34:32;2.75;;;1.70;;
71484;SDS011;59300;52.074;4.758;2022-12-29T00:37:37;2.78;;;1.90;;
71484;SDS011;59300;52.074;4.758;2022-12-29T00:40:42;3.33;;;1.90;;
71484;SDS011;59300;52.074;4.758;2022-12-29T00:43:44;3.03;;;1.80;;
71484;SDS011;59300;52.074;4.758;2022-12-29T00:46:46;2.60;;;1.90;;
71484;SDS011;59300;52.074;4.758;2022-12-29T00:49:47;3.53;;;1.98;;
71484;SDS011;59300;52.074;4.758;2022-12-29T00:52:50;1.75;;;1.58;;
71484;SDS011;59300;52.074;4.758;2022-12-29T00:55:52;3.47;;;1.80;;
71484;SDS011;59300;52.074;4.758;2022-12-29T00:58:53;2.47;;;2.28;;
71484;SDS011;59300;52.074;4.758;2022-12-29T01:01:55;2.67;;;2.05;;
71484;SDS011;59300;52.074;4.758;2022-12-29T01:04:57;2.80;;;2.00;;
71484;SDS011;59300;52.074;4.758;2022-12-29T01:07:59;5.15;;;2.40;;
71484;SDS011;59300;52.074;4.758;2022-12-29T01:11:01;5.43;;;2.08;;
71484;SDS011;59300;52.074;4.758;2022-12-29T01:14:07;2.08;;;1.88;;
71484;SDS011;59300;52.074;4.758;2022-12-29T01:17:09;2.97;;;1.92;;
71484;SDS011;59300;52.074;4.758;2022-12-29T01:20:10;2.30;;;2.08;;
71484;SDS011;59300;52.074;4.758;2022-12-29T01:23:12;7.70;;;2.35;;
71484;SDS011;59300;52.074;4.758;2022-12-29T01:26:15;3.08;;;2.78;;
71484;SDS011;59300;52.074;4.758;2022-12-29T01:29:18;4.22;;;2.15;;
71484;SDS011;59300;52.074;4.758;2022-12-29T01:32:20;2.17;;;2.00;;
71484;SDS011;59300;52.074;4.758;2022-12-29T01:35:24;3.55;;;2.25;;
71484;SDS011;59300;52.074;4.758;2022-12-29T01:38:26;5.20;;;2.60;;
71484;SDS011;59300;52.074;4.758;2022-12-29T01:41:27;3.17;;;1.98;;
71484;SDS011;59300;52.074;4.758;2022-12-29T01:47:53;2.22;;;1.80;;
71484;SDS011;59300;52.074;4.758;2022-12-29T01:50:58;3.17;;;1.98;;
71484;SDS011;59300;52.074;4.758;2022-12-29T01:54:00;3.08;;;2.08;;
71484;SDS011;59300;52.074;4.758;2022-12-29T01:57:08;12.63;;;2.65;;
71484;SDS011;59300;52.074;4.758;2022-12-29T02:00:31;4.88;;;2.25;;
71484;SDS011;59300;52.074;4.758;2022-12-29T02:03:34;5.13;;;2.15;;
71484;SDS011;59300;52.074;4.758;2022-12-29T02:06:41;5.63;;;1.95;;
71484;SDS011;59300;52.074;4.758;2022-12-29T02:09:49;3.53;;;1.60;;
71484;SDS011;59300;52.074;4.758;2022-12-29T02:12:53;5.68;;;1.63;;
71484;SDS011;59300;52.074;4.758;2022-12-29T02:16:07;2.00;;;1.33;;
71484;SDS011;59300;52.074;4.758;2022-12-29T02:19:27;9.13;;;1.50;;
71484;SDS011;59300;52.074;4.758;2022-12-29T02:39:52;2.92;;;1.20;;
71484;SDS011;59300;52.074;4.758;2022-12-29T02:42:59;8.80;;;2.05;;
71484;SDS011;59300;52.074;4.758;2022-12-29T02:46:12;5.20;;;1.70;;
71484;SDS011;59300;52.074;4.758;2022-12-29T02:49:25;6.25;;;1.48;;
71484;SDS011;59300;52.074;4.758;2022-12-29T02:52:32;4.82;;;1.30;;
71484;SDS011;59300;52.074;4.758;2022-12-29T02:55:47;5.72;;;1.33;;
71484;SDS011;59300;52.074;4.758;2022-12-29T02:58:49;10.88;;;1.73;;
71484;SDS011;59300;52.074;4.758;2022-12-29T03:08:35;11.73;;;1.80;;
71484;SDS011;59300;52.074;4.758;2022-12-29T03:12:24;5.15;;;1.73;;
71484;SDS011;59300;52.074;4.758;2022-12-29T03:15:34;11.45;;;2.00;;
71484;SDS011;59300;52.074;4.758;2022-12-29T03:22:03;10.02;;;1.83;;
71484;SDS011;59300;52.074;4.758;2022-12-29T03:25:15;5.18;;;1.23;;
71484;SDS011;59300;52.074;4.758;2022-12-29T03:28:31;8.23;;;1.40;;
71484;SDS011;59300;52.074;4.758;2022-12-29T03:31:37;7.63;;;1.60;;
71484;SDS011;59300;52.074;4.758;2022-12-29T03:34:40;6.40;;;1.15;;
71484;SDS011;59300;52.074;4.758;2022-12-29T03:37:44;5.57;;;1.38;;
71484;SDS011;59300;52.074;4.758;2022-12-29T03:41:01;5.20;;;0.90;;
71484;SDS011;59300;52.074;4.758;2022-12-29T03:44:07;3.47;;;1.00;;
71484;SDS011;59300;52.074;4.758;2022-12-29T03:47:10;5.55;;;1.10;;
71484;SDS011;59300;52.074;4.758;2022-12-29T03:50:12;10.77;;;1.52;;
71484;SDS011;59300;52.074;4.758;2022-12-29T03:53:16;5.15;;;0.95;;
71484;SDS011;59300;52.074;4.758;2022-12-29T03:56:19;3.50;;;1.02;;
71484;SDS011;59300;52.074;4.758;2022-12-29T03:59:22;2.97;;;1.08;;
71484;SDS011;59300;52.074;4.758;2022-12-29T04:02:24;8.77;;;1.90;;
71484;SDS011;59300;52.074;4.758;2022-12-29T04:05:26;4.97;;;1.48;;
71484;SDS011;59300;52.074;4.758;2022-12-29T04:08:29;10.82;;;1.58;;
71484;SDS011;59300;52.074;4.758;2022-12-29T04:11:32;7.68;;;1.65;;
71484;SDS011;59300;52.074;4.758;2022-12-29T04:14:37;10.85;;;1.38;;
71484;SDS011;59300;52.074;4.758;2022-12-29T04:17:38;11.80;;;1.52;;
71484;SDS011;59300;52.074;4.758;2022-12-29T04:20:40;4.05;;;1.17;;
71484;SDS011;59300;52.074;4.758;2022-12-29T04:23:42;4.45;;;1.10;;
71484;SDS011;59300;52.074;4.758;2022-12-29T04:26:45;11.93;;;1.70;;
71484;SDS011;59300;52.074;4.758;2022-12-29T04:30:06;8.15;;;1.40;;
71484;SDS011;59300;52.074;4.758;2022-12-29T04:33:17;10.02;;;1.42;;
71484;SDS011;59300;52.074;4.758;2022-12-29T04:36:19;12.63;;;2.08;;
71484;SDS011;59300;52.074;4.758;2022-12-29T04:39:30;8.85;;;1.10;;
71484;SDS011;59300;52.074;4.758;2022-12-29T04:42:31;5.80;;;1.42;;
71484;SDS011;59300;52.074;4.758;2022-12-29T04:45:33;8.63;;;1.13;;
71484;SDS011;59300;52.074;4.758;2022-12-29T04:48:44;6.00;;;1.17;;
71484;SDS011;59300;52.074;4.758;2022-12-29T04:52:02;8.52;;;1.55;;
71484;SDS011;59300;52.074;4.758;2022-12-29T04:55:04;13.20;;;2.30;;
71484;SDS011;59300;52.074;4.758;2022-12-29T05:01:10;9.32;;;1.83;;
71484;SDS011;59300;52.074;4.758;2022-12-29T05:04:11;11.52;;;1.98;;
71484;SDS011;59300;52.074;4.758;2022-12-29T05:07:15;8.18;;;1.80;;
71484;SDS011;59300;52.074;4.758;2022-12-29T05:10:18;6.57;;;1.35;;
71484;SDS011;59300;52.074;4.758;2022-12-29T05:13:24;9.40;;;1.77;;
71484;SDS011;59300;52.074;4.758;2022-12-29T05:16:27;12.73;;;1.92;;
71484;SDS011;59300;52.074;4.758;2022-12-29T05:19:28;11.75;;;1.90;;
71484;SDS011;59300;52.074;4.758;2022-12-29T05:22:31;16.63;;;1.90;;
71484;SDS011;59300;52.074;4.758;2022-12-29T05:25:33;17.33;;;1.95;;
71484;SDS011;59300;52.074;4.758;2022-12-29T05:28:58;13.43;;;1.77;;
71484;SDS011;59300;52.074;4.758;2022-12-29T05:32:00;10.15;;;1.73;;
71484;SDS011;59300;52.074;4.758;2022-12-29T05:35:03;14.05;;;2.15;;
71484;SDS011;59300;52.074;4.758;2022-12-29T05:38:09;10.05;;;1.63;;
71484;SDS011;59300;52.074;4.758;2022-12-29T05:41:12;15.02;;;1.73;;
71484;SDS011;59300;52.074;4.758;2022-12-29T05:44:34;12.02;;;1.83;;
71484;SDS011;59300;52.074;4.758;2022-12-29T05:48:05;16.00;;;2.10;;
71484;SDS011;59300;52.074;4.758;2022-12-29T05:51:29;8.57;;;2.15;;
71484;SDS011;59300;52.074;4.758;2022-12-29T05:54:33;13.15;;;2.25;;
71484;SDS011;59300;52.074;4.758;2022-12-29T05:57:40;15.55;;;2.17;;
71484;SDS011;59300;52.074;4.758;2022-12-29T06:00:47;15.85;;;2.20;;
71484;SDS011;59300;52.074;4.758;2022-12-29T06:03:49;9.25;;;1.60;;
71484;SDS011;59300;52.074;4.758;2022-12-29T06:06:53;14.88;;;2.40;;
71484;SDS011;59300;52.074;4.758;2022-12-29T06:10:07;17.20;;;2.25;;
71484;SDS011;59300;52.074;4.758;2022-12-29T06:13:29;14.80;;;2.58;;
71484;SDS011;59300;52.074;4.758;2022-12-29T06:16:31;13.95;;;1.80;;
71484;SDS011;59300;52.074;4.758;2022-12-29T06:19:36;11.23;;;2.00;;
71484;SDS011;59300;52.074;4.758;2022-12-29T06:25:42;15.50;;;1.90;;
71484;SDS011;59300;52.074;4.758;2022-12-29T06:28:43;13.23;;;1.70;;
71484;SDS011;59300;52.074;4.758;2022-12-29T06:31:45;17.98;;;2.97;;
71484;SDS011;59300;52.074;4.758;2022-12-29T06:34:47;9.93;;;1.60;;
71484;SDS011;59300;52.074;4.758;2022-12-29T06:37:49;16.23;;;2.13;;
71484;SDS011;59300;52.074;4.758;2022-12-29T06:40:51;16.48;;;2.35;;
71484;SDS011;59300;52.074;4.758;2022-12-29T06:44:11;15.45;;;2.40;;
71484;SDS011;59300;52.074;4.758;2022-12-29T06:47:35;11.95;;;2.38;;
71484;SDS011;59300;52.074;4.758;2022-12-29T06:50:36;14.32;;;2.15;;
71484;SDS011;59300;52.074;4.758;2022-12-29T06:53:38;15.27;;;2.53;;
71484;SDS011;59300;52.074;4.758;2022-12-29T06:56:39;13.95;;;1.98;;
71484;SDS011;59300;52.074;4.758;2022-12-29T06:59:41;13.35;;;1.75;;
71484;SDS011;59300;52.074;4.758;2022-12-29T07:02:43;15.98;;;3.25;;
71484;SDS011;59300;52.074;4.758;2022-12-29T07:05:44;11.82;;;1.92;;
71484;SDS011;59300;52.074;4.758;2022-12-29T07:08:46;7.22;;;1.10;;
71484;SDS011;59300;52.074;4.758;2022-12-29T07:11:47;11.00;;;2.17;;
71484;SDS011;59300;52.074;4.758;2022-12-29T07:14:49;6.70;;;1.48;;
71484;SDS011;59300;52.074;4.758;2022-12-29T07:17:51;12.95;;;1.90;;
71484;SDS011;59300;52.074;4.758;2022-12-29T07:20:52;14.45;;;1.92;;
71484;SDS011;59300;52.074;4.758;2022-12-29T07:23:54;12.25;;;1.73;;
71484;SDS011;59300;52.074;4.758;2022-12-29T07:26:56;7.30;;;1.90;;
71484;SDS011;59300;52.074;4.758;2022-12-29T07:29:57;14.18;;;2.15;;
71484;SDS011;59300;52.074;4.758;2022-12-29T07:32:59;10.68;;;2.28;;
71484;SDS011;59300;52.074;4.758;2022-12-29T07:36:00;11.93;;;2.17;;
71484;SDS011;59300;52.074;4.758;2022-12-29T07:39:02;11.63;;;1.95;;
71484;SDS011;59300;52.074;4.758;2022-12-29T07:42:04;9.52;;;1.70;;
71484;SDS011;59300;52.074;4.758;2022-12-29T07:45:14;14.98;;;2.13;;
71484;SDS011;59300;52.074;4.758;2022-12-29T07:48:23;12.85;;;2.35;;
71484;SDS011;59300;52.074;4.758;2022-12-29T07:51:24;16.70;;;1.73;;
71484;SDS011;59300;52.074;4.758;2022-12-29T07:54:26;12.60;;;1.67;;
71484;SDS011;59300;52.074;4.758;2022-12-29T07:57:28;17.75;;;2.88;;
71484;SDS011;59300;52.074;4.758;2022-12-29T08:00:32;11.73;;;1.95;;
71484;SDS011;59300;52.074;4.758;2022-12-29T08:03:34;14.75;;;2.35;;
71484;SDS011;59300;52.074;4.758;2022-12-29T08:06:36;15.20;;;2.03;;
71484;SDS011;59300;52.074;4.758;2022-12-29T08:09:37;11.60;;;1.98;;
71484;SDS011;59300;52.074;4.758;2022-12-29T08:12:39;11.23;;;2.63;;
71484;SDS011;59300;52.074;4.758;2022-12-29T08:15:42;15.10;;;1.77;;
71484;SDS011;59300;52.074;4.758;2022-12-29T08:18:43;12.32;;;2.20;;
71484;SDS011;59300;52.074;4.758;2022-12-29T08:21:45;11.82;;;2.80;;
71484;SDS011;59300;52.074;4.758;2022-12-29T08:24:47;17.45;;;2.47;;
71484;SDS011;59300;52.074;4.758;2022-12-29T08:27:51;14.60;;;2.28;;
71484;SDS011;59300;52.074;4.758;2022-12-29T08:30:59;11.48;;;1.95;;
71484;SDS011;59300;52.074;4.758;2022-12-29T08:34:02;18.77;;;3.15;;
71484;SDS011;59300;52.074;4.758;2022-12-29T08:37:05;16.77;;;2.75;;
71484;SDS011;59300;52.074;4.758;2022-12-29T08:40:06;14.00;;;1.75;;
71484;SDS011;59300;52.074;4.758;2022-12-29T08:43:12;12.30;;;2.05;;
71484;SDS011;59300;52.074;4.758;2022-12-29T08:46:19;17.17;;;2.58;;
71484;SDS011;59300;52.074;4.758;2022-12-29T08:49:20;10.43;;;1.92;;
71484;SDS011;59300;52.074;4.758;2022-12-29T08:52:23;12.20;;;1.98;;
71484;SDS011;59300;52.074;4.758;2022-12-29T08:55:25;10.52;;;2.00;;
71484;SDS011;59300;52.074;4.758;2022-12-29T08:58:28;11.70;;;2.22;;
71484;SDS011;59300;52.074;4.758;2022-12-29T09:01:29;11.48;;;1.60;;
71484;SDS011;59300;52.074;4.758;2022-12-29T09:04:31;13.50;;;1.73;;
71484;SDS011;59300;52.074;4.758;2022-12-29T09:07:33;15.35;;;2.60;;
71484;SDS011;59300;52.074;4.758;2022-12-29T09:10:35;19.10;;;2.17;;
71484;SDS011;59300;52.074;4.758;2022-12-29T09:13:36;18.00;;;2.38;;
71484;SDS011;59300;52.074;4.758;2022-12-29T09:16:38;21.65;;;2.60;;
71484;SDS011;59300;52.074;4.758;2022-12-29T09:19:41;7.50;;;1.80;;
71484;SDS011;59300;52.074;4.758;2022-12-29T09:22:45;18.75;;;2.70;;
71484;SDS011;59300;52.074;4.758;2022-12-29T09:25:48;15.85;;;2.90;;
71484;SDS011;59300;52.074;4.758;2022-12-29T09:28:49;14.75;;;3.75;;
71484;SDS011;59300;52.074;4.758;2022-12-29T09:31:51;14.27;;;3.53;;
71484;SDS011;59300;52.074;4.758;2022-12-29T09:34:52;26.17;;;5.35;;
71484;SDS011;59300;52.074;4.758;2022-12-29T09:37:54;13.20;;;2.42;;
71484;SDS011;59300;52.074;4.758;2022-12-29T09:40:58;15.65;;;3.10;;
71484;SDS011;59300;52.074;4.758;2022-12-29T09:44:20;18.85;;;3.83;;
71484;SDS011;59300;52.074;4.758;2022-12-29T09:47:27;19.55;;;2.88;;
71484;SDS011;59300;52.074;4.758;2022-12-29T09:50:36;16.73;;;2.90;;
71484;SDS011;59300;52.074;4.758;2022-12-29T09:53:41;14.02;;;2.90;;
71484;SDS011;59300;52.074;4.758;2022-12-29T09:56:45;17.67;;;3.15;;
71484;SDS011;59300;52.074;4.758;2022-12-29T09:59:48;15.30;;;2.80;;
71484;SDS011;59300;52.074;4.758;2022-12-29T10:03:02;20.23;;;3.45;;
71484;SDS011;59300;52.074;4.758;2022-12-29T10:06:15;15.18;;;3.33;;
71484;SDS011;59300;52.074;4.758;2022-12-29T10:20:18;17.17;;;3.08;;
71484;SDS011;59300;52.074;4.758;2022-12-29T10:23:53;16.50;;;3.50;;
71484;SDS011;59300;52.074;4.758;2022-12-29T10:26:54;16.00;;;3.20;;
71484;SDS011;59300;52.074;4.758;2022-12-29T10:29:59;30.00;;;3.75;;
71484;SDS011;59300;52.074;4.758;2022-12-29T10:33:04;16.90;;;3.45;;
71484;SDS011;59300;52.074;4.758;2022-12-29T10:36:13;16.73;;;3.13;;
71484;SDS011;59300;52.074;4.758;2022-12-29T10:39:21;16.13;;;3.40;;
71484;SDS011;59300;52.074;4.758;2022-12-29T10:42:39;25.05;;;3.67;;
71484;SDS011;59300;52.074;4.758;2022-12-29T10:45:46;28.75;;;4.28;;
71484;SDS011;59300;52.074;4.758;2022-12-29T10:48:49;22.38;;;3.28;;
71484;SDS011;59300;52.074;4.758;2022-12-29T10:51:51;22.90;;;3.40;;
71484;SDS011;59300;52.074;4.758;2022-12-29T10:58:06;22.88;;;4.18;;
71484;SDS011;59300;52.074;4.758;2022-12-29T11:01:12;19.35;;;3.67;;
71484;SDS011;59300;52.074;4.758;2022-12-29T11:04:35;26.10;;;3.22;;
71484;SDS011;59300;52.074;4.758;2022-12-29T11:07:42;22.83;;;3.20;;
71484;SDS011;59300;52.074;4.758;2022-12-29T11:10:44;20.85;;;3.28;;
71484;SDS011;59300;52.074;4.758;2022-12-29T11:13:47;24.50;;;3.78;;
71484;SDS011;59300;52.074;4.758;2022-12-29T11:16:58;19.98;;;2.85;;
71484;SDS011;59300;52.074;4.758;2022-12-29T11:20:18;25.38;;;3.38;;
71484;SDS011;59300;52.074;4.758;2022-12-29T11:23:38;24.00;;;4.43;;
71484;SDS011;59300;52.074;4.758;2022-12-29T11:26:43;18.47;;;2.70;;
71484;SDS011;59300;52.074;4.758;2022-12-29T11:29:45;22.27;;;3.47;;
71484;SDS011;59300;52.074;4.758;2022-12-29T11:32:50;21.95;;;3.95;;
71484;SDS011;59300;52.074;4.758;2022-12-29T11:35:56;18.15;;;3.47;;
71484;SDS011;59300;52.074;4.758;2022-12-29T11:39:05;18.50;;;3.33;;
71484;SDS011;59300;52.074;4.758;2022-12-29T11:42:17;30.83;;;4.03;;
71484;SDS011;59300;52.074;4.758;2022-12-29T11:45:27;23.13;;;3.58;;
71484;SDS011;59300;52.074;4.758;2022-12-29T11:48:38;24.70;;;3.42;;
71484;SDS011;59300;52.074;4.758;2022-12-29T11:51:45;26.20;;;3.45;;
71484;SDS011;59300;52.074;4.758;2022-12-29T11:54:51;18.75;;;3.47;;
71484;SDS011;59300;52.074;4.758;2022-12-29T11:57:54;23.20;;;3.50;;
71484;SDS011;59300;52.074;4.758;2022-12-29T12:04:22;14.63;;;2.28;;
71484;SDS011;59300;52.074;4.758;2022-12-29T12:10:50;11.95;;;2.25;;
71484;SDS011;59300;52.074;4.758;2022-12-29T12:13:59;15.18;;;2.40;;
71484;SDS011;59300;52.074;4.758;2022-12-29T12:17:33;20.73;;;2.85;;
71484;SDS011;59300;52.074;4.758;2022-12-29T12:20:49;24.23;;;3.45;;
71484;SDS011;59300;52.074;4.758;2022-12-29T12:24:01;29.02;;;4.10;;
71484;SDS011;59300;52.074;4.758;2022-12-29T12:27:24;17.42;;;2.47;;
71484;SDS011;59300;52.074;4.758;2022-12-29T12:30:40;14.80;;;2.75;;
71484;SDS011;59300;52.074;4.758;2022-12-29T12:33:48;13.93;;;2.78;;
71484;SDS011;59300;52.074;4.758;2022-12-29T12:37:06;13.20;;;1.98;;
71484;SDS011;59300;52.074;4.758;2022-12-29T12:44:02;9.05;;;2.05;;
71484;SDS011;59300;52.074;4.758;2022-12-29T12:54:10;16.17;;;2.50;;
71484;SDS011;59300;52.074;4.758;2022-12-29T12:57:28;9.15;;;1.92;;
71484;SDS011;59300;52.074;4.758;2022-12-29T13:00:34;14.05;;;1.67;;
71484;SDS011;59300;52.074;4.758;2022-12-29T13:11:11;13.87;;;2.23;;
71484;SDS011;59300;52.074;4.758;2022-12-29T13:15:11;14.88;;;2.20;;
71484;SDS011;59300;52.074;4.758;2022-12-29T13:22:09;19.67;;;2.80;;
71484;SDS011;59300;52.074;4.758;2022-12-29T13:25:39;21.70;;;2.60;;
71484;SDS011;59300;52.074;4.758;2022-12-29T13:35:59;15.23;;;2.58;;
71484;SDS011;59300;52.074;4.758;2022-12-29T13:39:16;16.20;;;2.20;;
71484;SDS011;59300;52.074;4.758;2022-12-29T13:42:21;16.58;;;2.58;;
71484;SDS011;59300;52.074;4.758;2022-12-29T13:45:26;12.63;;;2.35;;
71484;SDS011;59300;52.074;4.758;2022-12-29T13:48:36;17.92;;;2.35;;
71484;SDS011;59300;52.074;4.758;2022-12-29T13:51:53;14.88;;;2.85;;
71484;SDS011;59300;52.074;4.758;2022-12-29T13:58:31;16.77;;;3.10;;
71484;SDS011;59300;52.074;4.758;2022-12-29T14:08:18;8.45;;;2.10;;
71484;SDS011;59300;52.074;4.758;2022-12-29T14:11:39;8.63;;;2.30;;
71484;SDS011;59300;52.074;4.758;2022-12-29T14:14:41;8.65;;;1.98;;
71484;SDS011;59300;52.074;4.758;2022-12-29T14:17:43;9.70;;;1.70;;
71484;SDS011;59300;52.074;4.758;2022-12-29T14:20:56;9.65;;;1.80;;
71484;SDS011;59300;52.074;4.758;2022-12-29T14:24:32;9.18;;;2.50;;
71484;SDS011;59300;52.074;4.758;2022-12-29T14:27:51;10.18;;;1.80;;
71484;SDS011;59300;52.074;4.758;2022-12-29T14:30:56;15.07;;;2.33;;
71484;SDS011;59300;52.074;4.758;2022-12-29T14:37:21;13.35;;;2.58;;
71484;SDS011;59300;52.074;4.758;2022-12-29T14:44:22;10.90;;;2.85;;
71484;SDS011;59300;52.074;4.758;2022-12-29T14:50:41;17.25;;;2.88;;
71484;SDS011;59300;52.074;4.758;2022-12-29T14:53:49;14.98;;;2.95;;
71484;SDS011;59300;52.074;4.758;2022-12-29T14:56:52;15.77;;;2.33;;
71484;SDS011;59300;52.074;4.758;2022-12-29T15:00:06;16.15;;;2.95;;
71484;SDS011;59300;52.074;4.758;2022-12-29T15:06:39;12.95;;;2.60;;
71484;SDS011;59300;52.074;4.758;2022-12-29T15:09:42;10.38;;;2.53;;
71484;SDS011;59300;52.074;4.758;2022-12-29T15:17:20;14.15;;;2.53;;
71484;SDS011;59300;52.074;4.758;2022-12-29T15:20:29;15.40;;;2.78;;
71484;SDS011;59300;52.074;4.758;2022-12-29T15:23:48;11.65;;;2.13;;
71484;SDS011;59300;52.074;4.758;2022-12-29T15:26:51;12.57;;;2.75;;
71484;SDS011;59300;52.074;4.758;2022-12-29T15:29:56;16.88;;;2.92;;
71484;SDS011;59300;52.074;4.758;2022-12-29T15:33:16;7.55;;;2.88;;
71484;SDS011;59300;52.074;4.758;2022-12-29T15:36:26;9.50;;;2.33;;
71484;SDS011;59300;52.074;4.758;2022-12-29T15:39:30;14.05;;;2.20;;
71484;SDS011;59300;52.074;4.758;2022-12-29T15:46:12;12.43;;;2.15;;
71484;SDS011;59300;52.074;4.758;2022-12-29T15:49:15;11.80;;;2.75;;
71484;SDS011;59300;52.074;4.758;2022-12-29T15:52:18;20.77;;;3.03;;
71484;SDS011;59300;52.074;4.758;2022-12-29T15:55:24;19.13;;;3.35;;
71484;SDS011;59300;52.074;4.758;2022-12-29T15:58:31;11.98;;;3.30;;
71484;SDS011;59300;52.074;4.758;2022-12-29T16:01:42;10.63;;;3.08;;
71484;SDS011;59300;52.074;4.758;2022-12-29T16:04:44;14.35;;;2.47;;
71484;SDS011;59300;52.074;4.758;2022-12-29T16:08:22;14.25;;;2.40;;
71484;SDS011;59300;52.074;4.758;2022-12-29T16:11:38;15.82;;;2.10;;
71484;SDS011;59300;52.074;4.758;2022-12-29T16:14:48;10.30;;;1.73;;
71484;SDS011;59300;52.074;4.758;2022-12-29T16:17:55;11.52;;;1.67;;
71484;SDS011;59300;52.074;4.758;2022-12-29T16:20:57;16.30;;;2.20;;
71484;SDS011;59300;52.074;4.758;2022-12-29T16:24:00;14.10;;;2.30;;
71484;SDS011;59300;52.074;4.758;2022-12-29T16:30:25;11.00;;;2.00;;
71484;SDS011;59300;52.074;4.758;2022-12-29T16:33:39;15.35;;;2.08;;
71484;SDS011;59300;52.074;4.758;2022-12-29T16:36:55;11.77;;;2.00;;
71484;SDS011;59300;52.074;4.758;2022-12-29T16:46:27;5.97;;;1.50;;
71484;SDS011;59300;52.074;4.758;2022-12-29T16:49:31;11.80;;;2.13;;
71484;SDS011;59300;52.074;4.758;2022-12-29T16:52:34;11.18;;;2.10;;
71484;SDS011;59300;52.074;4.758;2022-12-29T16:55:36;8.93;;;2.38;;
71484;SDS011;59300;52.074;4.758;2022-12-29T16:58:38;11.85;;;2.15;;
71484;SDS011;59300;52.074;4.758;2022-12-29T17:01:40;9.23;;;2.15;;
71484;SDS011;59300;52.074;4.758;2022-12-29T17:04:42;11.35;;;2.22;;
71484;SDS011;59300;52.074;4.758;2022-12-29T17:07:43;10.45;;;1.90;;
71484;SDS011;59300;52.074;4.758;2022-12-29T17:10:46;10.38;;;1.90;;
71484;SDS011;59300;52.074;4.758;2022-12-29T17:13:47;17.92;;;2.67;;
71484;SDS011;59300;52.074;4.758;2022-12-29T17:16:49;11.45;;;2.38;;
71484;SDS011;59300;52.074;4.758;2022-12-29T17:19:51;12.23;;;1.90;;
71484;SDS011;59300;52.074;4.758;2022-12-29T17:22:56;10.52;;;2.53;;
71484;SDS011;59300;52.074;4.758;2022-12-29T17:25:58;5.72;;;1.58;;
71484;SDS011;59300;52.074;4.758;2022-12-29T17:29:00;8.73;;;1.90;;
71484;SDS011;59300;52.074;4.758;2022-12-29T17:32:02;8.93;;;1.88;;
71484;SDS011;59300;52.074;4.758;2022-12-29T17:35:12;11.50;;;2.10;;
71484;SDS011;59300;52.074;4.758;2022-12-29T17:38:22;7.55;;;1.58;;
71484;SDS011;59300;52.074;4.758;2022-12-29T17:41:28;10.65;;;2.00;;
71484;SDS011;59300;52.074;4.758;2022-12-29T17:44:30;7.78;;;2.35;;
71484;SDS011;59300;52.074;4.758;2022-12-29T17:47:32;14.13;;;2.47;;
71484;SDS011;59300;52.074;4.758;2022-12-29T17:50:33;12.40;;;3.20;;
71484;SDS011;59300;52.074;4.758;2022-12-29T17:53:35;15.85;;;3.35;;
71484;SDS011;59300;52.074;4.758;2022-12-29T17:56:37;17.52;;;5.95;;
71484;SDS011;59300;52.074;4.758;2022-12-29T17:59:38;20.35;;;3.22;;
71484;SDS011;59300;52.074;4.758;2022-12-29T18:02:44;16.75;;;4.35;;
71484;SDS011;59300;52.074;4.758;2022-12-29T18:05:46;23.13;;;5.55;;
71484;SDS011;59300;52.074;4.758;2022-12-29T18:08:48;16.38;;;3.80;;
71484;SDS011;59300;52.074;4.758;2022-12-29T18:11:49;16.75;;;4.20;;
71484;SDS011;59300;52.074;4.758;2022-12-29T18:14:51;13.50;;;3.10;;
71484;SDS011;59300;52.074;4.758;2022-12-29T18:18:08;14.07;;;2.38;;
71484;SDS011;59300;52.074;4.758;2022-12-29T18:21:16;16.92;;;2.58;;
71484;SDS011;59300;52.074;4.758;2022-12-29T18:24:20;20.55;;;2.47;;
71484;SDS011;59300;52.074;4.758;2022-12-29T18:27:21;18.73;;;2.10;;
71484;SDS011;59300;52.074;4.758;2022-12-29T18:30:23;21.60;;;2.35;;
71484;SDS011;59300;52.074;4.758;2022-12-29T18:33:24;15.07;;;2.55;;
71484;SDS011;59300;52.074;4.758;2022-12-29T18:36:27;12.75;;;2.60;;
71484;SDS011;59300;52.074;4.758;2022-12-29T18:39:32;24.70;;;2.95;;
71484;SDS011;59300;52.074;4.758;2022-12-29T18:42:34;13.88;;;2.60;;
71484;SDS011;59300;52.074;4.758;2022-12-29T18:45:36;15.98;;;3.58;;
71484;SDS011;59300;52.074;4.758;2022-12-29T18:48:38;18.08;;;2.75;;
71484;SDS011;59300;52.074;4.758;2022-12-29T18:51:40;21.20;;;4.30;;
71484;SDS011;59300;52.074;4.758;2022-12-29T18:54:41;18.67;;;2.65;;
71484;SDS011;59300;52.074;4.758;2022-12-29T18:57:43;12.55;;;3.38;;
71484;SDS011;59300;52.074;4.758;2022-12-29T19:00:45;15.77;;;2.60;;
71484;SDS011;59300;52.074;4.758;2022-12-29T19:03:47;19.25;;;4.32;;
71484;SDS011;59300;52.074;4.758;2022-12-29T19:06:48;12.65;;;3.35;;
71484;SDS011;59300;52.074;4.758;2022-12-29T19:09:50;22.08;;;2.88;;
71484;SDS011;59300;52.074;4.758;2022-12-29T19:12:52;23.98;;;4.43;;
71484;SDS011;59300;52.074;4.758;2022-12-29T19:15:55;16.35;;;2.40;;
71484;SDS011;59300;52.074;4.758;2022-12-29T19:18:57;17.08;;;2.40;;
71484;SDS011;59300;52.074;4.758;2022-12-29T19:22:09;15.88;;;3.13;;
71484;SDS011;59300;52.074;4.758;2022-12-29T19:25:11;21.95;;;2.90;;
71484;SDS011;59300;52.074;4.758;2022-12-29T19:28:17;19.88;;;3.13;;
71484;SDS011;59300;52.074;4.758;2022-12-29T19:31:24;18.15;;;3.40;;
71484;SDS011;59300;52.074;4.758;2022-12-29T19:34:26;17.95;;;3.40;;
71484;SDS011;59300;52.074;4.758;2022-12-29T19:37:27;24.02;;;3.50;;
71484;SDS011;59300;52.074;4.758;2022-12-29T19:40:29;26.15;;;3.65;;
71484;SDS011;59300;52.074;4.758;2022-12-29T19:43:30;18.65;;;3.28;;
71484;SDS011;59300;52.074;4.758;2022-12-29T19:46:32;20.45;;;3.28;;
71484;SDS011;59300;52.074;4.758;2022-12-29T19:49:34;17.30;;;3.88;;
71484;SDS011;59300;52.074;4.758;2022-12-29T19:52:36;23.35;;;4.78;;
71484;SDS011;59300;52.074;4.758;2022-12-29T19:55:41;17.42;;;3.75;;
71484;SDS011;59300;52.074;4.758;2022-12-29T19:58:46;14.50;;;3.38;;
71484;SDS011;59300;52.074;4.758;2022-12-29T20:01:48;24.60;;;3.17;;
71484;SDS011;59300;52.074;4.758;2022-12-29T20:04:50;26.10;;;3.75;;
71484;SDS011;59300;52.074;4.758;2022-12-29T20:07:52;28.77;;;3.63;;
71484;SDS011;59300;52.074;4.758;2022-12-29T20:10:58;19.48;;;2.95;;
71484;SDS011;59300;52.074;4.758;2022-12-29T20:14:01;18.08;;;3.25;;
71484;SDS011;59300;52.074;4.758;2022-12-29T20:17:03;27.00;;;3.78;;
71484;SDS011;59300;52.074;4.758;2022-12-29T20:20:13;24.40;;;4.00;;
71484;SDS011;59300;52.074;4.758;2022-12-29T20:23:14;19.27;;;3.50;;
71484;SDS011;59300;52.074;4.758;2022-12-29T20:26:17;18.27;;;2.90;;
71484;SDS011;59300;52.074;4.758;2022-12-29T20:29:21;20.27;;;3.17;;
71484;SDS011;59300;52.074;4.758;2022-12-29T20:32:23;26.30;;;3.75;;
71484;SDS011;59300;52.074;4.758;2022-12-29T20:35:24;21.02;;;2.85;;
71484;SDS011;59300;52.074;4.758;2022-12-29T20:38:26;16.10;;;2.78;;